TimeAEST,TemperatureF,Dew PointF,Humidity,Sea Level PressureIn,VisibilityMPH,Wind Direction,Wind SpeedMPH,Gust SpeedMPH,PrecipitationIn,Events,Conditions,WindDirDegrees,DateUTC
12:00 AM,75,68,73,30.09,,East,21.9,,,,,90,2013-10-15 14:00:00
12:00 AM,75.2,68.0,78,30.09,-9999.0,East,21.9,-,N/A,,Unknown,90,2013-10-15 14:00:00
12:30 AM,75.2,68.0,78,30.06,-9999.0,East,20.7,-,N/A,,Unknown,90,2013-10-15 14:30:00
1:00 AM,75.2,69.8,83,30.04,-9999.0,East,24.2,-,N/A,,Unknown,90,2013-10-15 15:00:00
1:30 AM,75.2,68.0,78,30.04,-9999.0,East,21.9,-,N/A,,Unknown,90,2013-10-15 15:30:00
2:00 AM,75.2,68.0,78,30.04,-9999.0,East,21.9,-,N/A,,Unknown,90,2013-10-15 16:00:00
2:30 AM,75.2,69.8,83,30.04,-9999.0,East,24.2,-,N/A,,Unknown,100,2013-10-15 16:30:00
3:00 AM,75,67,69,30.03,,East,23.0,,,,,90,2013-10-15 17:00:00
3:00 AM,75.2,66.2,73,30.01,-9999.0,East,23.0,-,N/A,,Unknown,90,2013-10-15 17:00:00
3:30 AM,75.2,66.2,73,30.01,-9999.0,East,21.9,-,N/A,,Unknown,90,2013-10-15 17:30:00
4:00 AM,75.2,66.2,73,30.04,-9999.0,East,20.7,-,N/A,,Unknown,90,2013-10-15 18:00:00
4:30 AM,75.2,66.2,73,30.04,-9999.0,East,20.7,-,N/A,,Unknown,90,2013-10-15 18:30:00
5:00 AM,75.2,68.0,78,30.04,-9999.0,East,18.4,-,N/A,,Unknown,90,2013-10-15 19:00:00
5:30 AM,75.2,66.2,73,30.04,-9999.0,East,19.6,-,N/A,,Unknown,90,2013-10-15 19:30:00
6:00 AM,75,67,69,30.07,,East,18.4,,,,,90,2013-10-15 20:00:00
6:00 AM,75.2,66.2,73,30.06,-9999.0,East,18.4,-,N/A,,Unknown,90,2013-10-15 20:00:00
6:30 AM,75.2,66.2,73,30.06,-9999.0,East,20.7,-,N/A,,Unknown,90,2013-10-15 20:30:00
7:00 AM,75.2,66.2,73,30.06,-9999.0,East,21.9,-,N/A,,Unknown,90,2013-10-15 21:00:00
7:30 AM,75.2,68.0,78,30.09,-9999.0,East,21.9,-,N/A,,Unknown,90,2013-10-15 21:30:00
8:00 AM,77.0,66.2,69,30.09,-9999.0,East,23.0,-,N/A,,Unknown,100,2013-10-15 22:00:00
8:30 AM,77.0,66.2,69,30.12,-9999.0,East,21.9,-,N/A,,Unknown,100,2013-10-15 22:30:00
9:00 AM,78,68,63,30.12,,East,23.0,,,,,100,2013-10-15 23:00:00
9:00 AM,77.0,68.0,74,30.12,-9999.0,East,23.0,-,N/A,,Unknown,100,2013-10-15 23:00:00
9:30 AM,75.2,66.2,73,30.12,-9999.0,ESE,18.4,-,N/A,,Unknown,110,2013-10-15 23:30:00
10:00 AM,77.0,66.2,69,30.12,-9999.0,ESE,20.7,-,N/A,,Unknown,110,2013-10-16 00:00:00
10:30 AM,77.0,64.4,65,30.12,-9999.0,ESE,21.9,-,N/A,,Unknown,110,2013-10-16 00:30:00
11:00 AM,80.6,64.4,58,30.12,-9999.0,ESE,20.7,-,N/A,,Unknown,110,2013-10-16 01:00:00
11:30 AM,80.6,66.2,61,30.09,-9999.0,ESE,19.6,-,N/A,,Unknown,110,2013-10-16 01:30:00
12:00 PM,79,61,45,30.10,,ESE,19.6,,,,,110,2013-10-16 02:00:00
12:00 PM,78.8,60.8,54,30.09,-9999.0,ESE,19.6,-,N/A,,Unknown,110,2013-10-16 02:00:00
12:30 PM,78.8,64.4,61,30.09,-9999.0,East,19.6,-,N/A,,Unknown,100,2013-10-16 02:30:00
1:00 PM,78.8,66.2,65,30.06,-9999.0,East,18.4,-,N/A,,Unknown,100,2013-10-16 03:00:00
1:30 PM,78.8,64.4,61,30.06,-9999.0,East,19.6,-,N/A,,Unknown,100,2013-10-16 03:30:00
2:00 PM,78.8,62.6,57,30.06,-9999.0,East,20.7,-,N/A,,Unknown,100,2013-10-16 04:00:00
2:30 PM,77.0,62.6,61,30.06,-9999.0,East,19.6,-,N/A,,Unknown,100,2013-10-16 04:30:00
3:00 PM,77,63,54,30.06,,East,20.7,,,,,100,2013-10-16 05:00:00
3:00 PM,77.0,62.6,61,30.06,-9999.0,East,20.7,-,N/A,,Unknown,100,2013-10-16 05:00:00
3:30 PM,77.0,64.4,65,30.04,-9999.0,ESE,23.0,-,N/A,,Unknown,110,2013-10-16 05:30:00
4:00 PM,75.2,66.2,73,30.04,-9999.0,ESE,21.9,-,N/A,,Unknown,110,2013-10-16 06:00:00
4:30 PM,75.2,64.4,69,30.04,-9999.0,ESE,23.0,-,N/A,,Unknown,110,2013-10-16 06:30:00
5:00 PM,75.2,64.4,69,30.04,-9999.0,ESE,24.2,-,N/A,,Unknown,110,2013-10-16 07:00:00
5:30 PM,75.2,66.2,73,30.06,-9999.0,ESE,24.2,-,N/A,,Unknown,110,2013-10-16 07:30:00
6:00 PM,74,65,67,30.06,,ESE,26.5,,,,,110,2013-10-16 08:00:00
6:00 PM,75.2,66.2,73,30.04,-9999.0,ESE,26.5,-,N/A,,Unknown,110,2013-10-16 08:00:00
6:30 PM,75.2,64.4,69,30.06,-9999.0,ESE,26.5,-,N/A,,Unknown,110,2013-10-16 08:30:00
7:00 PM,75.2,66.2,73,30.06,-9999.0,ESE,26.5,-,N/A,,Unknown,110,2013-10-16 09:00:00
7:30 PM,75.2,64.4,69,30.06,-9999.0,ESE,24.2,-,N/A,,Unknown,110,2013-10-16 09:30:00
8:00 PM,75.2,64.4,69,30.09,-9999.0,ESE,21.9,-,N/A,,Unknown,110,2013-10-16 10:00:00
8:30 PM,75.2,64.4,69,30.09,-9999.0,ESE,20.7,-,N/A,,Unknown,110,2013-10-16 10:30:00
9:00 PM,74,63,61,30.10,,ESE,19.6,,,,,110,2013-10-16 11:00:00
9:00 PM,75.2,62.6,65,30.09,-9999.0,ESE,19.6,-,N/A,,Unknown,110,2013-10-16 11:00:00
9:30 PM,73.4,62.6,69,30.09,-9999.0,East,19.6,-,N/A,,Unknown,100,2013-10-16 11:30:00
10:00 PM,75.2,66.2,73,30.09,-9999.0,East,19.6,-,N/A,,Unknown,90,2013-10-16 12:00:00
10:30 PM,75.2,66.2,73,30.09,-9999.0,East,21.9,-,N/A,,Unknown,100,2013-10-16 12:30:00
11:00 PM,75.2,66.2,73,30.09,-9999.0,East,20.7,-,N/A,,Unknown,100,2013-10-16 13:00:00
11:30 PM,73.4,64.4,73,30.09,-9999.0,East,19.6,-,N/A,,Unknown,100,2013-10-16 13:30:00